Terminal Aerodrome Forecast
Issued by NWS Green Bay, WI

Home | Current Version | Previous Version | Graphics & Text | Print | Product List | Glossary On
Versions: 1 2 3 4 5 6 7 8 9 10 11 12 13 14 15 16 17 18 19 20 21 22 23 24 25 26 27 28 29 30 31 32 33 34 35 36 37 38 39 40 41 42 43 44 45 46 47 48
000
FTUS43 KGRB 090532 AAA
TAFGRB
TAF AMD
KGRB 090532Z 0906/1006 24005KT 3SM -SN OVC025
      TEMPO 0906/0909 1 1/2SM -SN BKN015
     FM090900 34010G16KT 3SM -SN BKN019
     FM091200 36013G26KT P6SM -SHSN BKN027
     FM091600 34014G24KT P6SM BKN035
     FM092000 32012G18KT P6SM SCT045
     FM092300 29006KT P6SM BKN100=

USA.gov is the U.S. government's official web portal to all federal, state and local government web resources and services.